createdAt,value
2019-01-23T00:01:15.713Z,100784.12
2019-01-23T00:03:23.636Z,100782.52
2019-01-23T00:05:30.799Z,100780.80
2019-01-23T00:07:37.222Z,100780.98
2019-01-23T00:09:45.064Z,100773.84
2019-01-23T00:11:51.531Z,100782.85
2019-01-23T00:13:59.639Z,100779.89
2019-01-23T00:16:06.231Z,100777.38
2019-01-23T00:18:12.251Z,100776.10
2019-01-23T00:20:20.291Z,100773.63
2019-01-23T00:22:26.610Z,100765.13
2019-01-23T00:24:32.890Z,100762.67
2019-01-23T00:26:39.249Z,100760.59
2019-01-23T00:28:47.061Z,100760.20
2019-01-23T00:30:54.851Z,100759.80
2019-01-23T00:33:01.296Z,100754.32
2019-01-23T00:35:09.092Z,100762.09
2019-01-23T00:37:15.253Z,100760.78
2019-01-23T00:39:21.623Z,100759.50
2019-01-23T00:41:29.423Z,100758.80
2019-01-23T00:43:35.905Z,100761.36
2019-01-23T00:45:43.071Z,100758.03
2019-01-23T00:47:49.629Z,100755.52
2019-01-23T00:49:55.947Z,100746.17
2019-01-23T00:52:04.189Z,100746.17
2019-01-23T00:54:12.497Z,100747.16
2019-01-23T00:56:20.400Z,100746.25
2019-01-23T00:58:27.780Z,100745.70
2019-01-23T01:00:33.880Z,100735.45
2019-01-23T01:02:41.766Z,100734.17
2019-01-23T01:04:47.898Z,100736.36
2019-01-23T01:06:54.154Z,100723.95
2019-01-23T01:09:02.156Z,100723.29
2019-01-23T01:11:09.946Z,100723.25
2019-01-23T01:13:16.218Z,100713.14
2019-01-23T01:15:22.725Z,100714.02
2019-01-23T01:17:29.932Z,100708.61
2019-01-23T01:19:36.277Z,100706.39
2019-01-23T01:21:42.374Z,100702.96
2019-01-23T01:23:48.732Z,100694.96
2019-01-23T01:25:55.524Z,100691.13
2019-01-23T01:28:02.002Z,100685.17
2019-01-23T01:30:12.462Z,100683.91
2019-01-23T01:32:18.913Z,100678.79
2019-01-23T01:34:25.281Z,100684.84
2019-01-23T01:36:31.963Z,100681.45
2019-01-23T01:38:39.521Z,100681.92
2019-01-23T01:40:46.501Z,100682.89
2019-01-23T01:42:54.508Z,100686.02
2019-01-23T01:45:01.865Z,100687.64
2019-01-23T01:47:08.565Z,100683.20
2019-01-23T01:49:15.224Z,100691.67
2019-01-23T01:51:21.529Z,100679.73
2019-01-23T01:53:29.368Z,100682.69
2019-01-23T01:55:35.757Z,100676.67
2019-01-23T01:57:44.040Z,100678.89
2019-01-23T01:59:51.651Z,100679.27
2019-01-23T02:01:58.003Z,100675.43
2019-01-23T02:04:04.840Z,100673.28
2019-01-23T02:06:10.930Z,100671.13
2019-01-23T02:08:18.428Z,100671.09
2019-01-23T02:10:24.678Z,100668.88
2019-01-23T02:12:32.378Z,100661.58
2019-01-23T02:14:40.067Z,100655.90
2019-01-23T02:16:46.227Z,100654.08
2019-01-23T02:18:52.908Z,100656.97
2019-01-23T02:21:01.427Z,100654.37
2019-01-23T02:23:07.699Z,100653.80
2019-01-23T02:25:13.941Z,100656.77
2019-01-23T02:27:20.301Z,100643.48
2019-01-23T02:29:29.511Z,100645.87
2019-01-23T02:31:35.930Z,100646.17
2019-01-23T02:33:42.354Z,100649.09
2019-01-23T02:35:48.812Z,100645.19
2019-01-23T02:37:55.182Z,100641.33
2019-01-23T02:40:02.270Z,100637.42
2019-01-23T02:42:08.841Z,100635.17
2019-01-23T02:44:15.095Z,100635.06
2019-01-23T02:46:23.079Z,100639.26
2019-01-23T02:48:31.099Z,100632.47
2019-01-23T02:50:39.288Z,100637.11
2019-01-23T02:52:45.709Z,100626.79
2019-01-23T02:54:51.919Z,100626.22
2019-01-23T02:56:58.278Z,100625.34
2019-01-23T02:59:04.639Z,100620.23
2019-01-23T03:01:11.000Z,100614.69
2019-01-23T03:03:18.284Z,100616.41
2019-01-23T03:05:26.485Z,100618.09
2019-01-23T03:07:32.763Z,100611.52
2019-01-23T03:09:40.776Z,100614.91
2019-01-23T03:11:50.195Z,100608.86
2019-01-23T03:13:56.405Z,100608.81
2019-01-23T03:16:02.625Z,100603.75
2019-01-23T03:18:08.773Z,100605.02
2019-01-23T03:20:18.353Z,100603.75
2019-01-23T03:22:25.169Z,100605.56
2019-01-23T03:24:31.548Z,100606.55
2019-01-23T03:26:38.317Z,100604.09
2019-01-23T03:28:44.757Z,100605.11
2019-01-23T03:30:53.910Z,100602.66
2019-01-23T03:33:00.370Z,100604.41
2019-01-23T03:35:09.828Z,100602.83
2019-01-23T03:37:16.734Z,100602.76
2019-01-23T03:39:22.931Z,100606.25
2019-01-23T03:41:29.913Z,100596.95
2019-01-23T03:43:37.747Z,100605.02
2019-01-23T03:45:44.281Z,100609.25
2019-01-23T03:47:50.437Z,100604.11
2019-01-23T03:49:57.254Z,100601.45
2019-01-23T03:52:03.853Z,100599.23
2019-01-23T03:54:10.452Z,100605.61
2019-01-23T03:56:17.132Z,100599.20
2019-01-23T03:58:23.932Z,100600.91
2019-01-23T04:00:32.332Z,100595.41
2019-01-23T04:02:38.971Z,100596.27
2019-01-23T04:04:45.854Z,100595.47
2019-01-23T04:06:52.652Z,100598.42
2019-01-23T04:09:00.096Z,100595.06
2019-01-23T04:11:06.677Z,100591.97
2019-01-23T04:13:14.540Z,100585.96
2019-01-23T04:15:22.344Z,100583.38
2019-01-23T04:17:29.676Z,100588.01
2019-01-23T04:19:36.157Z,100583.67
2019-01-23T04:21:43.001Z,100585.35
2019-01-23T04:23:49.321Z,100584.65
2019-01-23T04:25:56.092Z,100577.13
2019-01-23T04:28:02.317Z,100577.53
2019-01-23T04:30:18.367Z,100572.89
2019-01-23T04:32:24.417Z,100582.63
2019-01-23T04:34:30.767Z,100579.17
2019-01-23T04:36:37.158Z,100579.07
2019-01-23T04:38:43.620Z,100577.19
2019-01-23T04:40:49.869Z,100572.78
2019-01-23T04:42:56.144Z,100575.23
2019-01-23T04:45:06.595Z,100573.78
2019-01-23T04:47:12.955Z,100572.37
2019-01-23T04:49:19.116Z,100578.61
2019-01-23T04:51:32.954Z,100573.07
2019-01-23T04:53:42.185Z,100576.13
2019-01-23T04:55:48.858Z,100576.06
2019-01-23T04:57:55.326Z,100573.41
2019-01-23T05:00:01.467Z,100574.64
2019-01-23T05:02:07.885Z,100574.23
2019-01-23T05:04:14.077Z,100571.28
2019-01-23T05:06:22.100Z,100570.05
2019-01-23T05:08:28.350Z,100566.32
2019-01-23T05:10:34.926Z,100567.13
2019-01-23T05:12:41.197Z,100561.98
2019-01-23T05:14:48.679Z,100560.41
2019-01-23T05:16:55.302Z,100558.33
2019-01-23T05:19:03.668Z,100562.16
2019-01-23T05:21:11.657Z,100555.81
2019-01-23T05:23:18.113Z,100548.56
2019-01-23T05:25:24.471Z,100555.98
2019-01-23T05:27:31.039Z,100555.62
2019-01-23T05:29:37.600Z,100551.42
2019-01-23T05:31:43.763Z,100557.41
2019-01-23T05:33:51.282Z,100554.55
2019-01-23T05:35:57.664Z,100552.47
2019-01-23T05:38:03.668Z,100551.29
2019-01-23T05:40:10.678Z,100553.38
2019-01-23T05:42:17.016Z,100543.23
2019-01-23T05:44:23.175Z,100544.94
2019-01-23T05:46:59.749Z,100541.95
2019-01-23T05:49:07.657Z,100541.31
2019-01-23T05:51:16.571Z,100541.31
2019-01-23T05:53:23.793Z,100536.78
2019-01-23T05:55:30.942Z,100540.30
2019-01-23T05:57:37.304Z,100538.33
2019-01-23T05:59:46.382Z,100541.75
2019-01-23T06:01:53.083Z,100544.80
2019-01-23T06:04:02.582Z,100543.53
2019-01-23T06:06:09.106Z,100540.10
2019-01-23T06:08:15.525Z,100538.02
2019-01-23T06:10:21.721Z,100537.65
2019-01-23T06:12:29.403Z,100546.98
2019-01-23T06:14:35.795Z,100538.83
2019-01-23T06:16:50.123Z,100540.10
2019-01-23T06:18:58.924Z,100540.20
2019-01-23T06:21:08.063Z,100541.48
2019-01-23T06:23:14.383Z,100539.33
2019-01-23T06:25:20.708Z,100539.30
2019-01-23T06:27:28.471Z,100543.90
2019-01-23T06:29:36.276Z,100546.75
2019-01-23T06:31:42.446Z,100549.71
2019-01-23T06:33:48.843Z,100550.92
2019-01-23T06:35:56.653Z,100552.09
2019-01-23T06:38:02.866Z,100557.97
2019-01-23T06:40:12.963Z,100555.89
2019-01-23T06:42:19.391Z,100552.88
2019-01-23T06:44:26.378Z,100560.45
2019-01-23T06:46:32.641Z,100551.49
2019-01-23T06:48:42.147Z,100558.74
2019-01-23T06:50:49.483Z,100557.88
2019-01-23T06:52:55.588Z,100560.05
2019-01-23T06:55:02.283Z,100558.74
2019-01-23T06:57:08.337Z,100554.52
2019-01-23T06:59:14.369Z,100551.52
2019-01-23T07:01:20.430Z,100554.14
2019-01-23T07:03:26.857Z,100560.59
2019-01-23T07:05:33.378Z,100559.75
2019-01-23T07:07:39.516Z,100558.58
2019-01-23T07:09:45.683Z,100559.86
2019-01-23T07:11:54.799Z,100556.91
2019-01-23T07:14:01.057Z,100559.92
2019-01-23T07:16:07.356Z,100557.97
2019-01-23T07:18:14.630Z,100559.65
2019-01-23T07:20:23.729Z,100557.94
2019-01-23T07:22:31.880Z,100557.84
2019-01-23T07:24:38.101Z,100565.09
2019-01-23T07:26:47.013Z,100566.88
2019-01-23T07:28:53.484Z,100564.25
2019-01-23T07:30:59.754Z,100563.92
2019-01-23T07:33:09.584Z,100566.03
2019-01-23T07:35:18.394Z,100570.00
2019-01-23T07:37:26.221Z,100566.70
2019-01-23T07:39:32.362Z,100567.64
2019-01-23T07:41:38.463Z,100570.70
2019-01-23T07:43:44.509Z,100578.45
2019-01-23T07:45:51.301Z,100576.41
2019-01-23T07:47:57.315Z,100578.25
2019-01-23T07:50:03.436Z,100578.75
2019-01-23T07:52:09.501Z,100576.70
2019-01-23T07:54:15.565Z,100579.92
2019-01-23T07:56:21.723Z,100576.15
2019-01-23T07:58:28.074Z,100574.09
2019-01-23T08:00:34.394Z,100578.95
2019-01-23T08:02:42.953Z,100580.77
2019-01-23T08:04:49.158Z,100574.53
2019-01-23T08:06:55.173Z,100577.66
2019-01-23T08:09:04.153Z,100582.45
2019-01-23T08:11:11.997Z,100577.44
2019-01-23T08:13:18.290Z,100582.66
2019-01-23T08:15:31.269Z,100585.34
2019-01-23T08:17:37.428Z,100579.86
2019-01-23T08:19:43.881Z,100582.01
2019-01-23T08:21:50.414Z,100579.42
2019-01-23T08:23:57.530Z,100587.50
2019-01-23T08:26:03.846Z,100584.09
2019-01-23T08:28:11.803Z,100590.55
2019-01-23T08:30:22.250Z,100582.97
2019-01-23T08:32:28.511Z,100589.61
2019-01-23T08:34:34.678Z,100585.66
2019-01-23T08:36:41.099Z,100588.23
2019-01-23T08:38:47.402Z,100580.23
2019-01-23T08:40:53.813Z,100583.76
2019-01-23T08:43:00.218Z,100581.45
2019-01-23T08:45:09.803Z,100580.14
2019-01-23T08:47:16.345Z,100587.59
2019-01-23T08:49:22.813Z,100586.22
2019-01-23T08:51:29.038Z,100585.28
2019-01-23T08:53:35.322Z,100588.42
2019-01-23T08:55:41.583Z,100574.44
2019-01-23T08:57:47.954Z,100576.74
2019-01-23T08:59:55.476Z,100576.45
2019-01-23T09:02:01.713Z,100575.36
2019-01-23T09:04:08.094Z,100586.22
2019-01-23T09:06:14.744Z,100584.81
2019-01-23T09:08:21.975Z,100580.09
2019-01-23T09:10:30.271Z,100585.20
2019-01-23T09:12:36.752Z,100582.23
2019-01-23T09:14:42.852Z,100587.84
2019-01-23T09:16:48.937Z,100584.55
2019-01-23T09:18:57.961Z,100586.48
2019-01-23T09:21:05.503Z,100582.65
2019-01-23T09:23:11.768Z,100577.84
2019-01-23T09:25:24.690Z,100576.29
2019-01-23T09:27:31.968Z,100574.58
2019-01-23T09:29:41.309Z,100576.86
2019-01-23T09:32:04.578Z,100580.32
2019-01-23T09:34:18.389Z,100577.69
2019-01-23T09:36:33.998Z,100578.14
2019-01-23T09:39:11.986Z,100576.95
2019-01-23T09:41:31.627Z,100580.02
2019-01-23T09:43:50.412Z,100572.14
2019-01-23T09:46:27.900Z,100572.02
2019-01-23T09:49:00.091Z,100568.25
2019-01-23T09:51:47.582Z,100572.09
2019-01-23T09:54:02.772Z,100570.10
2019-01-23T09:56:13.068Z,100563.52
2019-01-23T09:58:31.644Z,100570.59
2019-01-23T10:00:42.512Z,100575.39
2019-01-23T10:02:51.658Z,100569.18
2019-01-23T10:05:01.079Z,100564.29
2019-01-23T10:07:10.655Z,100558.63
2019-01-23T10:09:16.896Z,100563.38
2019-01-23T10:11:25.651Z,100554.38
2019-01-23T10:13:31.692Z,100550.00
2019-01-23T10:15:46.195Z,100546.63
2019-01-23T10:17:55.755Z,100545.09
2019-01-23T10:20:02.024Z,100541.34
2019-01-23T10:22:08.617Z,100542.39
2019-01-23T10:24:14.920Z,100543.33
2019-01-23T10:26:21.551Z,100541.44
2019-01-23T10:28:29.207Z,100541.03
2019-01-23T10:30:36.373Z,100538.05
2019-01-23T10:32:42.654Z,100540.31
2019-01-23T10:34:49.232Z,100531.52
2019-01-23T10:36:57.483Z,100539.33
2019-01-23T10:39:06.573Z,100539.49
2019-01-23T10:41:12.923Z,100546.73
2019-01-23T10:43:19.167Z,100541.13
2019-01-23T10:45:28.778Z,100540.82
2019-01-23T10:47:36.263Z,100538.70
2019-01-23T10:49:43.962Z,100536.96
2019-01-23T10:51:50.539Z,100538.34
2019-01-23T10:53:57.809Z,100536.79
2019-01-23T10:56:04.205Z,100536.88
2019-01-23T10:58:11.039Z,100530.50
2019-01-23T11:00:23.347Z,100525.87
2019-01-23T11:02:29.684Z,100528.21
2019-01-23T11:04:35.951Z,100522.70
2019-01-23T11:06:42.111Z,100523.29
2019-01-23T11:08:50.264Z,100521.00
2019-01-23T11:10:56.604Z,100512.83
2019-01-23T11:13:04.021Z,100518.98
2019-01-23T11:15:11.433Z,100519.07
2019-01-23T11:17:18.236Z,100519.70
2019-01-23T11:19:24.572Z,100516.62
2019-01-23T11:21:31.021Z,100513.64
2019-01-23T11:23:39.711Z,100510.16
2019-01-23T11:25:46.005Z,100505.55
2019-01-23T11:27:52.498Z,100508.63
2019-01-23T11:29:59.130Z,100510.98
2019-01-23T11:32:05.704Z,100506.92
2019-01-23T11:34:13.192Z,100507.46
2019-01-23T11:36:19.427Z,100506.26
2019-01-23T11:38:25.633Z,100505.55
2019-01-23T11:40:32.880Z,100505.97
2019-01-23T11:42:39.161Z,100506.12
2019-01-23T11:44:47.028Z,100504.14
2019-01-23T11:46:53.311Z,100502.06
2019-01-23T11:49:00.188Z,100501.03
2019-01-23T11:51:06.659Z,100494.94
2019-01-23T11:53:12.970Z,100496.67
2019-01-23T11:55:20.418Z,100501.91
2019-01-23T11:57:29.129Z,100500.16
2019-01-23T11:59:40.798Z,100504.06
2019-01-23T12:01:47.653Z,100492.81
2019-01-23T12:03:57.110Z,100497.09
2019-01-23T12:06:05.206Z,100502.77
2019-01-23T12:08:11.522Z,100501.48
2019-01-23T12:10:23.332Z,100502.36
2019-01-23T12:12:29.882Z,100497.21
2019-01-23T12:14:36.766Z,100495.14
2019-01-23T12:16:46.279Z,100502.69
2019-01-23T12:18:55.568Z,100496.05
2019-01-23T12:21:03.250Z,100495.92
2019-01-23T12:23:10.039Z,100495.38
2019-01-23T12:25:18.289Z,100488.45
2019-01-23T12:27:24.501Z,100488.77
2019-01-23T12:29:31.927Z,100484.45
2019-01-23T12:31:38.634Z,100492.17
2019-01-23T12:33:45.939Z,100488.68
2019-01-23T12:35:53.536Z,100482.20
2019-01-23T12:38:00.853Z,100485.09
2019-01-23T12:40:13.183Z,100482.47
2019-01-23T12:42:19.515Z,100486.70
2019-01-23T12:44:26.048Z,100483.71
2019-01-23T12:46:32.375Z,100480.27
2019-01-23T12:48:38.675Z,100481.98
2019-01-23T12:50:45.138Z,100478.99
2019-01-23T12:52:54.494Z,100481.14
2019-01-23T12:55:01.188Z,100484.08
2019-01-23T12:57:07.808Z,100487.11
2019-01-23T12:59:14.436Z,100482.38
2019-01-23T13:01:20.952Z,100483.57
2019-01-23T13:03:30.687Z,100486.96
2019-01-23T13:05:37.448Z,100490.41
2019-01-23T13:07:45.315Z,100487.42
2019-01-23T13:09:52.977Z,100488.39
2019-01-23T13:12:01.924Z,100487.67
2019-01-23T13:14:08.143Z,100488.22
2019-01-23T13:16:14.717Z,100487.44
2019-01-23T13:18:21.168Z,100492.67
2019-01-23T13:20:28.723Z,100498.73
2019-01-23T13:22:37.586Z,100497.08
2019-01-23T13:24:47.173Z,100497.08
2019-01-23T13:26:53.894Z,100494.36
2019-01-23T13:29:00.163Z,100498.50
2019-01-23T13:31:06.870Z,100497.94
2019-01-23T13:33:12.984Z,100494.78
2019-01-23T13:35:26.614Z,100490.87
2019-01-23T13:37:33.550Z,100495.05
2019-01-23T13:39:40.940Z,100492.46
2019-01-23T13:41:48.647Z,100492.93
2019-01-23T13:43:55.108Z,100484.75
2019-01-23T13:46:01.478Z,100485.17
2019-01-23T13:48:10.098Z,100489.89
2019-01-23T13:50:17.838Z,100489.91
2019-01-23T13:52:26.628Z,100485.73
2019-01-23T13:54:33.077Z,100483.30
2019-01-23T13:56:39.452Z,100481.24
2019-01-23T13:58:49.008Z,100476.97
2019-01-23T14:00:55.347Z,100478.30
2019-01-23T14:03:06.475Z,100474.44
2019-01-23T14:05:14.877Z,100471.83
2019-01-23T14:07:32.060Z,100477.24
2019-01-23T14:09:38.935Z,100475.03
2019-01-23T14:11:46.649Z,100474.48
2019-01-23T14:13:52.858Z,100476.55
2019-01-23T14:15:59.189Z,100476.48
2019-01-23T14:18:06.526Z,100479.38
2019-01-23T14:20:16.362Z,100481.47
2019-01-23T14:22:22.844Z,100482.66
2019-01-23T14:24:29.127Z,100479.22
2019-01-23T14:26:37.538Z,100482.14
2019-01-23T14:28:43.921Z,100481.22
2019-01-23T14:30:50.433Z,100489.30
2019-01-23T14:32:57.226Z,100488.41
2019-01-23T14:35:03.477Z,100491.39
2019-01-23T14:37:11.490Z,100488.72
2019-01-23T14:39:17.831Z,100491.23
2019-01-23T14:41:27.176Z,100497.13
2019-01-23T14:43:34.155Z,100485.01
2019-01-23T14:45:40.826Z,100488.37
2019-01-23T14:47:47.219Z,100493.45
2019-01-23T14:49:54.956Z,100487.45
2019-01-23T14:52:02.628Z,100495.11
2019-01-23T14:54:09.014Z,100499.72
2019-01-23T14:56:15.727Z,100493.25
2019-01-23T14:58:23.835Z,100496.27
2019-01-23T15:00:34.495Z,100504.38
2019-01-23T15:02:42.051Z,100505.61
2019-01-23T15:04:50.574Z,100506.00
2019-01-23T15:06:57.488Z,100515.35
2019-01-23T15:09:04.248Z,100514.88
2019-01-23T15:11:10.672Z,100518.73
2019-01-23T15:13:17.814Z,100517.50
2019-01-23T15:15:27.895Z,100522.69
2019-01-23T15:17:35.905Z,100523.11
2019-01-23T15:19:43.864Z,100521.87
2019-01-23T15:21:50.182Z,100522.34
2019-01-23T15:23:57.922Z,100523.62
2019-01-23T15:26:06.097Z,100528.30
2019-01-23T15:28:12.425Z,100533.90
2019-01-23T15:30:23.834Z,100526.59
2019-01-23T15:32:30.167Z,100533.31
2019-01-23T15:34:36.768Z,100530.27
2019-01-23T15:36:43.988Z,100531.44
2019-01-23T15:38:50.395Z,100528.28
2019-01-23T15:40:56.604Z,100537.94
2019-01-23T15:43:05.722Z,100533.09
2019-01-23T15:45:12.219Z,100543.22
2019-01-23T15:47:19.749Z,100546.08
2019-01-23T15:49:26.988Z,100545.20
2019-01-23T15:51:33.918Z,100548.97
2019-01-23T15:53:40.258Z,100557.41
2019-01-23T15:55:46.791Z,100553.95
2019-01-23T15:57:54.617Z,100552.50
2019-01-23T16:00:01.650Z,100553.36
2019-01-23T16:02:09.655Z,100559.70
2019-01-23T16:04:16.722Z,100564.75
2019-01-23T16:06:22.842Z,100561.24
2019-01-23T16:08:31.608Z,100558.17
2019-01-23T16:10:38.821Z,100561.51
2019-01-23T16:12:47.148Z,100564.58
2019-01-23T16:14:53.869Z,100561.27
2019-01-23T16:17:00.441Z,100563.54
2019-01-23T16:19:06.889Z,100562.01
2019-01-23T16:21:13.601Z,100563.50
2019-01-23T16:23:20.015Z,100559.03
2019-01-23T16:25:27.672Z,100561.09
2019-01-23T16:27:36.062Z,100564.33
2019-01-23T16:29:42.692Z,100577.39
2019-01-23T16:31:48.902Z,100572.80
2019-01-23T16:33:55.590Z,100572.92
2019-01-23T16:36:02.305Z,100569.13
2019-01-23T16:38:09.402Z,100577.77
2019-01-23T16:40:15.900Z,100573.52
2019-01-23T16:42:23.759Z,100569.30
2019-01-23T16:44:30.418Z,100573.58
2019-01-23T16:46:37.432Z,100571.47
2019-01-23T16:48:43.905Z,100578.83
2019-01-23T16:50:50.172Z,100577.59
2019-01-23T16:52:56.730Z,100574.16
2019-01-23T16:55:03.144Z,100578.88
2019-01-23T16:57:09.552Z,100582.33
2019-01-23T16:59:17.111Z,100581.04
2019-01-23T17:01:23.885Z,100583.63
2019-01-23T17:03:30.620Z,100583.63
2019-01-23T17:05:37.089Z,100585.35
2019-01-23T17:07:44.032Z,100583.21
2019-01-23T17:09:50.802Z,100590.44
2019-01-23T17:11:57.393Z,100590.90
2019-01-23T17:14:04.019Z,100590.90
2019-01-23T17:16:10.522Z,100594.77
2019-01-23T17:18:17.400Z,100598.61
2019-01-23T17:20:40.081Z,100605.08
2019-01-23T17:22:46.692Z,100601.70
2019-01-23T17:24:53.272Z,100602.58
2019-01-23T17:26:59.853Z,100600.42
2019-01-23T17:29:06.512Z,100603.81
2019-01-23T17:31:13.052Z,100605.54
2019-01-23T17:33:21.828Z,100602.47
2019-01-23T17:35:28.381Z,100602.92
2019-01-23T17:37:35.069Z,100602.47
2019-01-23T17:39:41.959Z,100599.47
2019-01-23T17:41:49.089Z,100602.04
2019-01-23T17:43:55.812Z,100602.47
2019-01-23T17:46:02.493Z,100601.19
2019-01-23T17:48:11.952Z,100603.28
2019-01-23T17:50:21.550Z,100607.94
2019-01-23T17:52:29.242Z,100601.06
2019-01-23T17:54:36.575Z,100609.22
2019-01-23T17:56:43.485Z,100610.51
2019-01-23T17:58:52.134Z,100613.07
2019-01-23T18:01:00.011Z,100607.94
2019-01-23T18:03:06.963Z,100606.26
2019-01-23T18:05:14.036Z,100615.72
2019-01-23T18:07:20.943Z,100614.94
2019-01-23T18:09:28.031Z,100616.70
2019-01-23T18:11:35.411Z,100621.02
2019-01-23T18:13:43.147Z,100618.92
2019-01-23T18:15:49.973Z,100618.09
2019-01-23T18:17:56.803Z,100617.23
2019-01-23T18:20:04.950Z,100614.60
2019-01-23T18:22:12.543Z,100620.20
2019-01-23T18:24:19.206Z,100622.36
2019-01-23T18:26:26.470Z,100619.28
2019-01-23T18:28:33.443Z,100617.63
2019-01-23T18:30:53.623Z,100620.61
2019-01-23T18:33:02.302Z,100620.61
2019-01-23T18:35:23.623Z,100621.42
2019-01-23T18:37:43.850Z,100622.99
2019-01-23T18:40:11.861Z,100618.91
2019-01-23T18:42:53.844Z,100624.19
2019-01-23T18:45:05.913Z,100618.35
2019-01-23T18:47:52.663Z,100622.75
2019-01-23T18:50:34.743Z,100622.06
2019-01-23T18:52:51.369Z,100628.75
2019-01-23T18:54:56.132Z,100626.79
2019-01-23T18:57:03.144Z,100624.49
2019-01-23T18:59:10.471Z,100635.16
2019-01-23T19:01:17.312Z,100634.98
2019-01-23T19:03:24.148Z,100637.81
2019-01-23T19:05:31.182Z,100638.43
2019-01-23T19:07:38.202Z,100648.94
2019-01-23T19:09:45.053Z,100651.75
2019-01-23T19:11:51.983Z,100652.41
2019-01-23T19:13:59.052Z,100654.87
2019-01-23T19:16:07.760Z,100659.84
2019-01-23T19:18:20.702Z,100661.47
2019-01-23T19:20:31.593Z,100666.89
2019-01-23T19:22:39.101Z,100667.22
2019-01-23T19:24:46.509Z,100664.59
2019-01-23T19:26:53.498Z,100669.64
2019-01-23T19:29:00.363Z,100666.17
2019-01-23T19:31:07.562Z,100663.07
2019-01-23T19:33:15.121Z,100670.27
2019-01-23T19:35:23.047Z,100671.80
2019-01-23T19:37:31.935Z,100673.79
2019-01-23T19:39:39.120Z,100676.20
2019-01-23T19:41:46.001Z,100680.02
2019-01-23T19:43:53.136Z,100677.31
2019-01-23T19:46:00.646Z,100673.27
2019-01-23T19:48:07.812Z,100675.27
2019-01-23T19:50:15.835Z,100684.14
2019-01-23T19:52:22.622Z,100684.40
2019-01-23T19:54:29.403Z,100686.88
2019-01-23T19:56:36.442Z,100687.56
2019-01-23T19:58:43.995Z,100694.27
2019-01-23T20:00:52.745Z,100695.93
2019-01-23T20:03:01.049Z,100693.62
2019-01-23T20:05:13.279Z,100693.50
2019-01-23T20:07:20.067Z,100705.76
2019-01-23T20:09:27.068Z,100701.80
2019-01-23T20:11:34.227Z,100704.56
2019-01-23T20:13:41.099Z,100706.97
2019-01-23T20:15:48.004Z,100705.28
2019-01-23T20:17:57.409Z,100704.69
2019-01-23T20:20:05.595Z,100702.56
2019-01-23T20:22:12.487Z,100715.32
2019-01-23T20:24:19.595Z,100709.27
2019-01-23T20:26:27.695Z,100712.57
2019-01-23T20:28:34.921Z,100708.17
2019-01-23T20:30:42.348Z,100717.36
2019-01-23T20:32:49.978Z,100714.63
2019-01-23T20:34:57.288Z,100718.77
2019-01-23T20:37:04.476Z,100718.34
2019-01-23T20:39:11.972Z,100719.55
2019-01-23T20:41:18.950Z,100719.52
2019-01-23T20:43:25.981Z,100723.35
2019-01-23T20:45:32.819Z,100721.63
2019-01-23T20:47:39.701Z,100726.24
2019-01-23T20:49:46.388Z,100721.87
2019-01-23T20:51:53.338Z,100728.97
2019-01-23T20:54:00.259Z,100723.34
2019-01-23T20:56:08.518Z,100727.18
2019-01-23T20:58:16.417Z,100728.80
2019-01-23T21:00:32.140Z,100730.78
2019-01-23T21:02:39.257Z,100726.84
2019-01-23T21:04:46.197Z,100721.12
2019-01-23T21:06:53.010Z,100724.04
2019-01-23T21:09:00.317Z,100728.58
2019-01-23T21:11:08.635Z,100730.62
2019-01-23T21:13:16.760Z,100726.69
2019-01-23T21:15:28.703Z,100737.98
2019-01-23T21:17:35.735Z,100731.64
2019-01-23T21:19:43.314Z,100738.83
2019-01-23T21:21:50.127Z,100730.73
2019-01-23T21:23:57.567Z,100740.88
2019-01-23T21:26:04.527Z,100738.69
2019-01-23T21:28:11.426Z,100739.39
2019-01-23T21:30:24.367Z,100740.59
2019-01-23T21:32:31.456Z,100741.44
2019-01-23T21:34:38.462Z,100743.88
2019-01-23T21:36:45.496Z,100751.98
2019-01-23T21:38:52.187Z,100746.88
2019-01-23T21:40:58.734Z,100751.66
2019-01-23T21:43:06.574Z,100747.34
2019-01-23T21:45:15.707Z,100756.58
2019-01-23T21:47:23.449Z,100750.56
2019-01-23T21:49:29.988Z,100752.23
2019-01-23T21:51:37.722Z,100756.55
2019-01-23T21:53:44.513Z,100758.66
2019-01-23T21:55:51.189Z,100758.63
2019-01-23T21:57:57.845Z,100764.09
2019-01-23T22:00:17.007Z,100761.00
2019-01-23T22:02:23.547Z,100760.97
2019-01-23T22:04:30.212Z,100767.75
2019-01-23T22:06:43.266Z,100765.95
2019-01-23T22:09:04.921Z,100758.19
2019-01-23T22:11:16.144Z,100762.75
2019-01-23T22:13:26.890Z,100764.10
2019-01-23T22:15:34.620Z,100761.84
2019-01-23T22:17:41.699Z,100764.91
2019-01-23T22:19:48.640Z,100767.45
2019-01-23T22:21:54.919Z,100774.31
2019-01-23T22:24:14.472Z,100776.80
2019-01-23T22:26:23.079Z,100782.55
2019-01-23T22:28:29.525Z,100791.73
2019-01-23T22:30:42.226Z,100797.86
2019-01-23T22:32:50.096Z,100804.02
2019-01-23T22:34:59.680Z,100805.17
2019-01-23T22:37:06.090Z,100807.69
2019-01-23T22:39:13.419Z,100820.37
2019-01-23T22:41:19.996Z,100815.16
2019-01-23T22:43:26.444Z,100813.28
2019-01-23T22:45:34.357Z,100819.11
2019-01-23T22:47:40.738Z,100825.05
2019-01-23T22:49:48.046Z,100819.39
2019-01-23T22:51:54.363Z,100822.66
2019-01-23T22:54:02.403Z,100816.16
2019-01-23T22:56:08.786Z,100821.51
2019-01-23T22:58:18.316Z,100825.69
2019-01-23T23:00:43.373Z,100824.86
2019-01-23T23:02:49.764Z,100823.58
2019-01-23T23:04:56.293Z,100830.64
2019-01-23T23:07:02.564Z,100830.88
2019-01-23T23:09:11.373Z,100832.83
2019-01-23T23:11:18.901Z,100833.58
2019-01-23T23:13:25.293Z,100827.08
2019-01-23T23:15:32.146Z,100825.84
2019-01-23T23:17:38.485Z,100829.23
2019-01-23T23:19:44.938Z,100830.11
2019-01-23T23:21:51.340Z,100827.44
2019-01-23T23:23:57.863Z,100825.61
2019-01-23T23:26:06.018Z,100833.26
2019-01-23T23:28:13.618Z,100832.73
2019-01-23T23:30:24.736Z,100827.16
2019-01-23T23:32:30.791Z,100836.56
2019-01-23T23:34:37.130Z,100833.97
2019-01-23T23:36:43.204Z,100833.48
2019-01-23T23:38:51.557Z,100827.03
2019-01-23T23:41:00.844Z,100835.08
2019-01-23T23:43:07.413Z,100830.54
2019-01-23T23:45:17.979Z,100833.53
2019-01-23T23:47:24.501Z,100828.91
2019-01-23T23:49:30.681Z,100826.31
2019-01-23T23:51:37.219Z,100825.96
2019-01-23T23:53:43.510Z,100822.14
2019-01-23T23:55:52.521Z,100823.81
2019-01-23T23:58:01.052Z,100829.66
